Time;durP1;ratioP1;P1;durP2;ratioP2;P2;SDS_P1;SDS_P2;PMS_P1;PMS_P2;Temp;Humidity;BMP_temperature;BMP_pressure;BME280_temperature;BME280_humidity;BME280_pressure;Samples;Min_cycle;Max_cycle;Signal;HPM_P1;HPM_P2
2022/05/15 00:01:22;;;;;;;2.85;2.00;;;22.90;79.20;;;;;;5097420;23;20354;-58
2022/05/15 00:03:25;;;;;;;3.53;2.00;;;22.90;79.20;;;;;;5091868;23;20093;-57
2022/05/15 00:05:27;;;;;;;6.75;2.65;;;22.90;79.30;;;;;;5092134;23;20036;-58
2022/05/15 00:07:29;;;;;;;4.53;2.10;;;22.90;79.50;;;;;;5071326;23;20060;-56
2022/05/15 00:09:32;;;;;;;3.30;2.20;;;22.90;79.50;;;;;;5066997;23;20831;-57
2022/05/15 00:11:34;;;;;;;2.97;2.05;;;22.90;79.40;;;;;;5041482;23;20204;-57
2022/05/15 00:13:37;;;;;;;3.47;1.70;;;22.90;79.30;;;;;;5047696;23;20124;-58
2022/05/15 00:15:40;;;;;;;3.40;2.20;;;23.00;79.30;;;;;;5096753;23;20136;-57
2022/05/15 00:17:42;;;;;;;4.40;2.00;;;23.00;79.20;;;;;;5067651;23;20052;-58
2022/05/15 00:19:48;;;;;;;2.50;1.88;;;23.00;79.20;;;;;;5090196;23;20126;-59
2022/05/15 00:21:50;;;;;;;3.08;1.70;;;23.00;79.30;;;;;;5097735;23;20394;-58
2022/05/15 00:23:52;;;;;;;6.47;2.33;;;23.00;79.20;;;;;;5089021;23;20611;-58
2022/05/15 00:25:55;;;;;;;4.03;2.28;;;23.00;79.30;;;;;;5062629;23;20029;-59
2022/05/15 00:27:58;;;;;;;6.80;2.08;;;23.00;79.50;;;;;;5094334;23;20035;-59
2022/05/15 00:30:00;;;;;;;;;;;23.10;79.60;;;;;;5045611;23;20196;-57
2022/05/15 00:32:02;;;;;;;3.92;2.30;;;23.00;79.50;;;;;;5089962;23;20206;-56
2022/05/15 00:34:04;;;;;;;3.67;1.73;;;23.10;79.50;;;;;;5090228;23;20324;-58
2022/05/15 00:36:06;;;;;;;3.50;2.15;;;23.10;79.30;;;;;;5096616;23;20028;-59
2022/05/15 00:38:11;;;;;;;4.47;2.08;;;23.20;79.30;;;;;;5089419;23;20354;-58
2022/05/15 00:40:15;;;;;;;3.70;1.98;;;23.10;79.20;;;;;;5090436;23;20445;-58
2022/05/15 00:42:18;;;;;;;5.88;2.00;;;23.20;79.40;;;;;;5090965;23;20104;-58
2022/05/15 00:44:20;;;;;;;4.20;1.93;;;23.20;79.40;;;;;;5094521;23;20289;-58
2022/05/15 00:46:36;;;;;;;3.67;1.90;;;23.20;79.40;;;;;;5089243;23;20123;-56
2022/05/15 00:48:39;;;;;;;4.78;1.75;;;23.20;79.40;;;;;;5090477;23;20064;-58
2022/05/15 00:50:41;;;;;;;10.15;2.42;;;23.20;79.30;;;;;;5087785;23;20363;-58
2022/05/15 00:52:46;;;;;;;4.03;1.73;;;23.20;79.30;;;;;;5067171;23;20056;-58
2022/05/15 00:54:56;;;;;;;2.67;1.80;;;23.30;79.30;;;;;;5096706;23;20083;-57
2022/05/15 00:57:08;;;;;;;3.65;1.50;;;23.30;79.20;;;;;;5069087;23;20447;-57
2022/05/15 00:59:22;;;;;;;2.13;1.45;;;23.30;79.10;;;;;;5095528;23;20654;-57
2022/05/15 01:01:24;;;;;;;4.88;1.80;;;23.30;79.10;;;;;;5097624;23;20024;-58
2022/05/15 01:03:26;;;;;;;2.45;1.85;;;23.30;79.20;;;;;;5086357;23;20033;-58
2022/05/15 01:05:28;;;;;;;3.38;1.75;;;23.30;79.20;;;;;;5091688;23;20044;-55
2022/05/15 01:07:30;;;;;;;4.18;1.80;;;23.40;79.20;;;;;;5097645;23;20029;-54
2022/05/15 01:09:32;;;;;;;6.35;2.45;;;23.40;79.10;;;;;;5088463;23;20673;-54
2022/05/15 01:11:36;;;;;;;12.93;1.83;;;23.40;79.30;;;;;;5088673;23;20080;-58
2022/05/15 01:13:42;;;;;;;6.28;1.92;;;23.40;79.30;;;;;;5063788;23;20033;-59
2022/05/15 01:15:47;;;;;;;6.57;2.38;;;23.50;79.20;;;;;;5098634;23;20047;-58
2022/05/15 01:17:50;;;;;;;3.00;1.90;;;23.50;79.20;;;;;;5063990;23;20168;-58
2022/05/15 01:20:08;;;;;;;7.53;2.22;;;23.60;79.20;;;;;;5066353;23;20349;-55
2022/05/15 01:22:14;;;;;;;3.75;1.67;;;23.60;79.20;;;;;;5093988;23;20048;-59
2022/05/15 01:24:17;;;;;;;3.65;1.77;;;23.60;79.20;;;;;;5093575;23;20033;-56
2022/05/15 01:26:20;;;;;;;4.53;1.80;;;23.70;79.20;;;;;;5096095;23;20024;-58
2022/05/15 01:28:24;;;;;;;4.00;1.75;;;23.70;79.10;;;;;;5098485;23;20060;-58
2022/05/15 01:30:30;;;;;;;4.68;1.52;;;23.70;79.10;;;;;;5094208;23;20059;-59
2022/05/15 01:32:32;;;;;;;2.78;1.80;;;23.80;79.00;;;;;;5092641;23;20435;-59
2022/05/15 01:34:34;;;;;;;2.05;1.50;;;23.80;78.80;;;;;;5067154;23;20443;-59
2022/05/15 01:36:37;;;;;;;3.42;1.27;;;23.80;78.60;;;;;;5065402;23;20408;-60
2022/05/15 01:38:39;;;;;;;1.98;1.48;;;23.90;78.50;;;;;;5063596;23;20048;-60
2022/05/15 01:40:42;;;;;;;4.32;2.20;;;23.80;77.80;;;;;;5091881;23;20122;-60
2022/05/15 01:42:45;;;;;;;3.38;2.35;;;23.80;77.20;;;;;;5098618;23;20112;-58
2022/05/15 01:44:47;;;;;;;3.27;2.30;;;23.80;77.20;;;;;;5065876;23;20032;-56
2022/05/15 01:46:49;;;;;;;4.05;2.33;;;23.80;77.40;;;;;;5091416;23;20028;-56
2022/05/15 01:48:53;;;;;;;2.78;1.90;;;23.80;77.60;;;;;;5098143;23;20558;-55
2022/05/15 01:50:55;;;;;;;3.33;2.13;;;23.90;77.80;;;;;;5096269;23;20538;-58
2022/05/15 01:52:57;;;;;;;2.35;1.48;;;23.90;77.80;;;;;;5093233;23;20148;-57
2022/05/15 01:54:59;;;;;;;2.87;1.70;;;23.90;77.80;;;;;;5093713;23;20060;-57
2022/05/15 01:57:01;;;;;;;2.00;1.50;;;24.00;77.80;;;;;;5091777;23;20875;-57
2022/05/15 01:59:05;;;;;;;3.40;2.30;;;24.00;77.70;;;;;;5091076;23;20096;-57
2022/05/15 02:01:07;;;;;;;4.45;2.92;;;24.00;77.70;;;;;;5091868;23;20060;-59
2022/05/15 02:03:10;;;;;;;27.20;22.55;;;24.10;77.50;;;;;;5098210;23;20024;-60
2022/05/15 02:05:12;;;;;;;34.05;30.30;;;24.10;77.20;;;;;;5093401;23;20055;-59
2022/05/15 02:07:14;;;;;;;38.65;34.10;;;24.10;77.00;;;;;;5092750;23;20532;-59
2022/05/15 02:09:16;;;;;;;46.53;41.53;;;24.10;77.00;;;;;;5061679;23;20538;-59
2022/05/15 02:11:18;;;;;;;51.10;45.33;;;24.10;77.00;;;;;;5098125;23;20885;-59
2022/05/15 02:13:20;;;;;;;51.80;45.38;;;24.00;76.90;;;;;;5087404;23;20126;-60
2022/05/15 02:15:22;;;;;;;49.05;43.75;;;24.00;76.90;;;;;;5089787;23;20024;-59
2022/05/15 02:17:24;;;;;;;48.92;43.63;;;24.00;76.90;;;;;;5097854;23;20556;-59
2022/05/15 02:19:27;;;;;;;46.55;41.58;;;24.10;77.10;;;;;;5091169;23;20039;-57
2022/05/15 02:21:30;;;;;;;40.92;36.42;;;24.10;77.40;;;;;;5091251;23;20066;-58
2022/05/15 02:23:32;;;;;;;;;;;24.10;77.70;;;;;;5067733;23;20083;-60
2022/05/15 02:25:34;;;;;;;38.63;34.47;;;24.10;77.60;;;;;;5095470;23;20318;-60
2022/05/15 02:27:36;;;;;;;38.00;32.83;;;24.20;77.40;;;;;;5065541;23;20512;-59
2022/05/15 02:29:39;;;;;;;37.33;32.67;;;24.20;77.20;;;;;;5094448;23;20153;-60
2022/05/15 02:31:41;;;;;;;36.05;31.08;;;24.20;77.10;;;;;;5098506;23;20540;-59
2022/05/15 02:33:43;;;;;;;34.58;30.13;;;24.20;77.00;;;;;;5088130;23;20032;-59
2022/05/15 02:35:45;;;;;;;35.33;28.67;;;24.20;77.00;;;;;;5092451;23;20028;-60
2022/05/15 02:37:48;;;;;;;31.63;28.23;;;24.20;77.00;;;;;;5069585;23;20561;-60
2022/05/15 02:39:51;;;;;;;29.85;26.52;;;24.20;77.00;;;;;;5058889;23;20068;-60
2022/05/15 02:41:53;;;;;;;28.55;25.48;;;24.20;77.10;;;;;;5062435;23;20060;-53
2022/05/15 02:43:55;;;;;;;28.63;25.63;;;24.20;77.00;;;;;;5065566;23;20028;-59
2022/05/15 02:45:57;;;;;;;26.13;22.80;;;24.20;77.20;;;;;;5087077;23;20323;-58
2022/05/15 02:48:02;;;;;;;22.57;20.20;;;24.20;77.40;;;;;;5055969;23;20032;-59
2022/05/15 02:52:26;;;;;;;20.92;18.33;;;24.30;77.40;;;;;;5093117;23;20024;-60
2022/05/15 02:54:28;;;;;;;22.53;20.13;;;24.30;77.10;;;;;;5097996;23;20103;-60
2022/05/15 02:56:33;;;;;;;21.00;18.67;;;24.30;76.80;;;;;;5073630;23;20025;-59
2022/05/15 02:58:35;;;;;;;18.67;16.60;;;24.30;76.80;;;;;;5095785;23;20871;-59
2022/05/15 03:00:37;;;;;;;18.02;16.17;;;24.30;76.80;;;;;;5090533;23;20032;-59
2022/05/15 03:02:40;;;;;;;17.88;15.55;;;24.30;76.60;;;;;;5099876;23;20357;-59
2022/05/15 03:04:42;;;;;;;17.33;14.52;;;24.30;76.60;;;;;;5095833;23;20413;-59
2022/05/15 03:06:45;;;;;;;16.42;14.35;;;24.30;76.60;;;;;;5097487;23;20064;-59
2022/05/15 03:08:51;;;;;;;16.42;13.32;;;24.30;76.60;;;;;;5102671;23;20476;-60
2022/05/15 03:10:54;;;;;;;15.38;12.43;;;24.30;76.90;;;;;;5105331;23;20024;-58
2022/05/15 03:12:56;;;;;;;14.07;12.03;;;24.30;77.70;;;;;;5099190;23;20434;-59
2022/05/15 03:14:58;;;;;;;16.30;11.70;;;24.40;78.30;;;;;;5093190;23;20021;-56
2022/05/15 03:17:00;;;;;;;13.35;10.77;;;24.40;78.10;;;;;;5094757;23;20177;-57
2022/05/15 03:19:03;;;;;;;13.82;10.10;;;24.40;78.10;;;;;;5088143;23;20357;-58
2022/05/15 03:21:05;;;;;;;12.13;10.13;;;24.50;78.00;;;;;;5087116;23;20619;-58
2022/05/15 03:23:07;;;;;;;10.90;8.77;;;24.50;78.00;;;;;;5091543;23;20079;-58
2022/05/15 03:25:10;;;;;;;10.70;8.25;;;24.60;78.10;;;;;;5095211;23;20029;-55
2022/05/15 03:27:13;;;;;;;10.63;7.90;;;24.60;78.00;;;;;;5089888;23;20284;-57
2022/05/15 03:29:18;;;;;;;11.32;7.45;;;24.60;78.00;;;;;;5109618;23;20046;-55
2022/05/15 03:31:27;;;;;;;12.02;7.00;;;24.60;77.90;;;;;;5121538;23;20025;-59
2022/05/15 03:33:29;;;;;;;10.82;7.10;;;24.60;77.80;;;;;;5123317;23;20534;-59
2022/05/15 03:35:31;;;;;;;7.85;6.00;;;24.70;77.80;;;;;;5101154;23;20590;-59
2022/05/15 03:37:33;;;;;;;8.90;5.82;;;24.70;77.80;;;;;;5120341;23;20024;-59
2022/05/15 03:39:35;;;;;;;8.43;5.50;;;24.70;77.70;;;;;;5088398;23;20349;-58
2022/05/15 03:41:38;;;;;;;11.93;5.53;;;24.80;77.70;;;;;;5099226;23;20028;-57
2022/05/15 03:43:41;;;;;;;7.18;5.10;;;24.80;77.50;;;;;;5089976;23;20390;-57
2022/05/15 03:45:43;;;;;;;9.23;5.03;;;24.80;77.60;;;;;;5067534;23;20115;-55
2022/05/15 03:47:50;;;;;;;11.80;5.30;;;24.80;77.50;;;;;;5099483;23;20021;-57
2022/05/15 03:49:53;;;;;;;7.85;4.93;;;24.80;77.20;;;;;;5093313;23;20028;-59
2022/05/15 03:51:55;;;;;;;7.70;4.80;;;24.90;77.40;;;;;;5094004;23;20028;-58
2022/05/15 03:53:57;;;;;;;6.20;4.40;;;24.90;77.30;;;;;;5066115;23;20329;-56
2022/05/15 03:56:00;;;;;;;5.83;4.40;;;25.00;77.20;;;;;;5098472;23;20135;-56
2022/05/15 03:58:02;;;;;;;7.28;4.43;;;25.00;77.30;;;;;;5066990;23;20155;-56
2022/05/15 04:00:16;;;;;;;9.20;4.13;;;25.00;77.30;;;;;;5093197;23;20071;-55
2022/05/15 04:02:19;;;;;;;5.72;4.28;;;25.00;77.30;;;;;;5093819;23;20025;-59
2022/05/15 04:04:21;;;;;;;10.20;5.25;;;25.00;77.10;;;;;;5097780;23;20549;-57
2022/05/15 04:06:23;;;;;;;9.48;6.60;;;25.10;76.60;;;;;;5072912;23;20475;-55
2022/05/15 04:08:27;;;;;;;15.05;6.53;;;25.10;76.50;;;;;;5060308;23;20767;-59
2022/05/15 04:10:30;;;;;;;8.73;5.63;;;25.10;76.50;;;;;;5064445;23;20040;-57
2022/05/15 04:12:32;;;;;;;7.88;5.15;;;25.10;76.50;;;;;;5070223;23;20458;-53
2022/05/15 04:14:34;;;;;;;9.68;4.80;;;25.10;76.60;;;;;;5090702;23;20886;-58
2022/05/15 04:16:37;;;;;;;5.40;4.30;;;25.20;76.60;;;;;;5094754;23;20360;-55
2022/05/15 04:18:39;;;;;;;6.60;4.60;;;25.20;76.60;;;;;;5096634;23;20047;-59
2022/05/15 04:20:42;;;;;;;7.32;4.43;;;25.20;76.50;;;;;;5096974;23;20029;-59
2022/05/15 04:22:44;;;;;;;7.73;4.07;;;25.20;77.20;;;;;;5065049;23;20136;-59
2022/05/15 04:24:46;;;;;;;6.38;3.63;;;25.20;76.70;;;;;;5066401;23;20255;-59
2022/05/15 04:26:48;;;;;;;8.63;4.20;;;25.20;76.80;;;;;;5094884;23;20036;-59
2022/05/15 04:28:50;;;;;;;7.63;4.00;;;25.20;76.80;;;;;;5064496;23;20055;-57
2022/05/15 04:30:52;;;;;;;6.13;3.85;;;25.10;76.90;;;;;;5067551;23;20501;-58
2022/05/15 04:32:55;;;;;;;8.15;3.60;;;25.20;77.00;;;;;;5048254;23;20033;-58
2022/05/15 04:34:57;;;;;;;6.65;3.22;;;25.20;77.00;;;;;;5070967;23;20033;-58
2022/05/15 04:36:59;;;;;;;7.50;3.25;;;25.20;77.00;;;;;;5069025;23;20028;-59
2022/05/15 04:39:02;;;;;;;5.57;2.65;;;25.20;77.00;;;;;;5099626;23;20317;-60
2022/05/15 04:41:04;;;;;;;5.75;2.90;;;25.20;77.00;;;;;;5093448;23;20652;-60
2022/05/15 04:43:07;;;;;;;8.57;3.33;;;25.20;77.00;;;;;;5044859;23;20381;-58
2022/05/15 04:45:10;;;;;;;7.13;2.93;;;25.20;77.20;;;;;;5092868;23;20025;-58
2022/05/15 04:47:16;;;;;;;4.78;3.08;;;25.30;77.20;;;;;;5096137;23;20270;-58
2022/05/15 04:49:18;;;;;;;5.05;2.75;;;25.20;77.10;;;;;;5097054;23;20862;-60
2022/05/15 04:51:24;;;;;;;4.63;2.80;;;25.30;77.20;;;;;;5095414;23;20061;-59
2022/05/15 04:53:27;;;;;;;3.42;2.40;;;25.30;76.90;;;;;;5091466;23;20028;-61
2022/05/15 04:55:29;;;;;;;8.50;2.90;;;25.30;76.90;;;;;;5072112;23;20436;-61
2022/05/15 04:57:31;;;;;;;6.93;2.63;;;25.30;76.80;;;;;;5093474;23;20492;-60
2022/05/15 04:59:33;;;;;;;8.55;2.78;;;25.20;76.80;;;;;;5092328;23;20029;-58
2022/05/15 05:01:35;;;;;;;4.07;2.60;;;25.20;76.80;;;;;;5072911;23;20037;-58
2022/05/15 05:03:37;;;;;;;5.82;2.47;;;25.20;76.90;;;;;;5070979;23;20239;-59
2022/05/15 05:05:40;;;;;;;4.95;2.40;;;25.20;77.20;;;;;;5094625;23;20028;-59
2022/05/15 05:07:42;;;;;;;2.60;1.77;;;25.30;77.20;;;;;;5095238;23;20528;-60
2022/05/15 05:09:44;;;;;;;7.73;2.40;;;25.30;77.10;;;;;;5101388;23;20225;-56
2022/05/15 05:11:46;;;;;;;5.35;2.08;;;25.30;77.00;;;;;;5068124;23;20120;-59
2022/05/15 05:13:49;;;;;;;4.03;2.00;;;25.40;77.00;;;;;;5095108;23;20028;-60
2022/05/15 05:15:51;;;;;;;3.13;2.05;;;25.40;76.90;;;;;;5102059;23;20028;-59
2022/05/15 05:17:53;;;;;;;8.33;1.70;;;25.40;76.90;;;;;;5094682;23;20112;-60
2022/05/15 05:19:55;;;;;;;7.20;1.90;;;25.40;76.70;;;;;;5095614;23;20025;-62
2022/05/15 05:21:57;;;;;;;2.13;1.45;;;25.40;76.70;;;;;;5072337;23;20037;-61
2022/05/15 05:23:59;;;;;;;2.20;1.60;;;25.50;76.70;;;;;;5099718;23;20024;-60
2022/05/15 05:26:03;;;;;;;3.00;1.50;;;25.50;76.60;;;;;;5091338;23;20031;-61
2022/05/15 05:28:05;;;;;;;2.28;1.40;;;25.50;76.60;;;;;;5094712;23;20548;-61
2022/05/15 05:30:12;;;;;;;5.03;1.95;;;25.50;76.50;;;;;;5096930;23;20035;-60
2022/05/15 05:32:14;;;;;;;5.28;1.67;;;25.50;76.40;;;;;;5095339;23;20381;-59
2022/05/15 05:34:16;;;;;;;6.28;1.67;;;25.50;76.50;;;;;;5090552;23;20067;-61
2022/05/15 05:36:19;;;;;;;5.03;2.37;;;25.40;76.60;;;;;;5096325;23;20392;-60
2022/05/15 05:38:22;;;;;;;6.47;1.77;;;25.40;76.60;;;;;;5066529;23;20021;-61
2022/05/15 05:40:24;;;;;;;6.15;1.67;;;25.40;76.70;;;;;;5056300;23;20024;-61
2022/05/15 05:42:26;;;;;;;7.25;1.70;;;25.40;76.70;;;;;;5084466;23;20538;-61
2022/05/15 05:44:28;;;;;;;3.33;1.60;;;25.40;76.80;;;;;;5091358;23;20624;-61
2022/05/15 05:46:31;;;;;;;11.82;2.15;;;25.40;76.90;;;;;;5084297;23;20433;-61
2022/05/15 05:48:33;;;;;;;7.93;1.77;;;25.40;77.00;;;;;;5084447;23;20209;-61
2022/05/15 05:50:37;;;;;;;3.17;1.30;;;25.40;77.00;;;;;;5087007;23;20033;-59
2022/05/15 05:52:40;;;;;;;2.80;1.40;;;25.40;77.10;;;;;;5062416;23;20347;-61
2022/05/15 05:54:42;;;;;;;2.50;1.27;;;25.40;77.20;;;;;;5081529;23;20086;-60
2022/05/15 05:56:44;;;;;;;3.05;1.40;;;25.40;77.20;;;;;;5081527;23;20380;-60
2022/05/15 05:58:46;;;;;;;4.57;1.20;;;25.40;77.30;;;;;;5063966;23;20029;-59
2022/05/15 06:00:48;;;;;;;4.57;1.63;;;25.40;77.40;;;;;;5083486;23;20033;-59
2022/05/15 06:02:50;;;;;;;9.18;1.65;;;25.40;77.40;;;;;;5085949;23;20411;-59
2022/05/15 06:04:53;;;;;;;3.90;1.52;;;25.40;77.40;;;;;;5094026;23;20032;-59
2022/05/15 06:06:55;;;;;;;3.63;1.27;;;25.40;77.40;;;;;;5093166;23;20448;-60
2022/05/15 06:08:57;;;;;;;3.63;1.40;;;25.30;77.80;;;;;;5092261;23;20468;-60
2022/05/15 06:11:00;;;;;;;3.17;1.42;;;25.30;77.20;;;;;;5099029;23;20040;-61
2022/05/15 06:13:02;;;;;;;5.03;1.73;;;25.30;77.30;;;;;;5098868;23;20024;-60
2022/05/15 06:15:05;;;;;;;1.27;0.85;;;25.30;77.30;;;;;;5092600;23;20036;-62
2022/05/15 06:17:07;;;;;;;2.40;1.30;;;25.30;77.20;;;;;;5090304;23;20285;-60
2022/05/15 06:19:09;;;;;;;2.38;1.13;;;25.30;77.30;;;;;;5072941;23;20028;-60
2022/05/15 06:21:11;;;;;;;7.53;1.80;;;25.20;77.40;;;;;;5067556;23;20396;-60
2022/05/15 06:23:13;;;;;;;4.82;1.73;;;25.20;77.30;;;;;;5063952;23;20029;-60
2022/05/15 06:25:15;;;;;;;1.70;1.05;;;25.20;77.40;;;;;;5070266;23;20112;-61
2022/05/15 06:27:18;;;;;;;8.23;1.45;;;25.20;77.40;;;;;;5069558;23;20124;-60
2022/05/15 06:29:20;;;;;;;6.30;1.23;;;25.20;77.40;;;;;;5093476;23;20461;-60
2022/05/15 06:31:22;;;;;;;2.63;1.50;;;25.20;77.40;;;;;;5096533;23;20103;-60
2022/05/15 06:33:24;;;;;;;2.08;1.08;;;25.20;77.50;;;;;;5068624;23;20384;-60
2022/05/15 06:35:26;;;;;;;2.97;1.40;;;25.20;77.40;;;;;;5093557;23;20082;-60
2022/05/15 06:37:29;;;;;;;3.45;1.42;;;25.10;77.50;;;;;;5094806;23;20551;-61
2022/05/15 06:39:31;;;;;;;1.25;0.93;;;25.20;77.50;;;;;;5098585;23;20476;-61
2022/05/15 06:41:33;;;;;;;2.38;1.17;;;25.10;77.50;;;;;;5067803;23;20193;-61
2022/05/15 06:43:36;;;;;;;2.40;1.15;;;25.10;77.50;;;;;;5096238;23;20028;-60
2022/05/15 06:45:38;;;;;;;3.50;1.50;;;25.10;77.60;;;;;;5099361;23;20482;-59
2022/05/15 06:47:40;;;;;;;2.38;1.65;;;25.10;77.60;;;;;;5093549;23;20020;-59
2022/05/15 06:49:42;;;;;;;4.03;1.83;;;25.10;77.70;;;;;;5092322;23;20055;-59
2022/05/15 06:51:45;;;;;;;3.45;1.50;;;25.10;78.10;;;;;;5068516;23;20779;-59
2022/05/15 06:53:48;;;;;;;3.38;1.90;;;25.10;78.00;;;;;;5070609;23;20033;-59
2022/05/15 06:58:11;;;;;;;3.25;1.60;;;25.10;78.00;;;;;;5097425;23;20364;-58
2022/05/15 07:00:16;;;;;;;3.53;1.73;;;25.10;78.00;;;;;;5094350;23;20075;-59
2022/05/15 07:02:18;;;;;;;4.10;1.55;;;25.10;78.00;;;;;;5098700;23;20033;-59
2022/05/15 07:04:20;;;;;;;7.28;1.83;;;25.10;77.90;;;;;;5104733;23;20028;-58
2022/05/15 07:06:23;;;;;;;3.58;1.60;;;25.10;78.00;;;;;;5097173;23;20316;-58
2022/05/15 07:08:26;;;;;;;2.30;1.67;;;25.10;78.00;;;;;;5087862;23;20044;-59
2022/05/15 07:10:28;;;;;;;2.85;1.50;;;25.10;77.90;;;;;;5094910;23;20032;-59
2022/05/15 07:12:30;;;;;;;3.38;1.65;;;25.10;77.90;;;;;;5093883;23;20034;-59
2022/05/15 07:14:33;;;;;;;3.20;1.73;;;25.10;77.90;;;;;;5090786;23;20498;-59
2022/05/15 07:16:35;;;;;;;3.10;1.55;;;25.10;77.90;;;;;;5091551;23;20623;-61
2022/05/15 07:18:38;;;;;;;25.98;2.58;;;25.10;78.30;;;;;;5095416;23;20463;-59
2022/05/15 07:20:40;;;;;;;7.68;2.10;;;25.10;78.20;;;;;;5094802;23;20308;-56
2022/05/15 07:22:42;;;;;;;5.93;2.03;;;25.10;78.20;;;;;;5091202;23;20063;-59
2022/05/15 07:24:44;;;;;;;5.32;2.20;;;25.10;78.30;;;;;;5099927;23;20028;-58
2022/05/15 07:26:46;;;;;;;7.63;2.15;;;25.10;78.30;;;;;;5094095;23;20204;-58
2022/05/15 07:28:51;;;;;;;2.83;1.70;;;25.10;78.20;;;;;;5089109;23;20103;-59
2022/05/15 07:30:54;;;;;;;3.30;1.80;;;25.10;78.00;;;;;;5091612;23;20025;-59
2022/05/15 07:32:56;;;;;;;3.83;1.60;;;25.10;77.90;;;;;;5067708;23;20111;-58
2022/05/15 07:34:58;;;;;;;3.10;1.60;;;25.10;77.80;;;;;;5090714;23;20060;-59
2022/05/15 07:37:00;;;;;;;3.63;1.70;;;25.00;77.70;;;;;;5090195;23;20043;-58
2022/05/15 07:39:03;;;;;;;3.90;1.90;;;25.00;77.70;;;;;;5097470;23;20063;-59
2022/05/15 07:41:05;;;;;;;;;;;25.00;77.60;;;;;;5095603;23;20436;-59
2022/05/15 07:43:12;;;;;;;3.72;2.63;;;25.00;77.40;;;;;;5095150;23;19947;-60
2022/05/15 07:45:16;;;;;;;6.22;2.70;;;25.00;77.40;;;;;;5079373;23;20453;-61
2022/05/15 07:47:18;;;;;;;4.90;2.42;;;25.00;77.60;;;;;;5120668;23;20024;-60
2022/05/15 07:49:20;;;;;;;4.68;2.75;;;25.00;77.60;;;;;;5100726;23;20393;-59
2022/05/15 07:51:23;;;;;;;3.72;2.60;;;25.00;78.00;;;;;;5107460;23;20224;-59
2022/05/15 07:53:26;;;;;;;5.47;2.90;;;25.00;78.00;;;;;;5123895;23;20027;-59
2022/05/15 07:55:28;;;;;;;4.05;2.55;;;25.00;78.10;;;;;;5106234;23;20777;-61
2022/05/15 07:57:30;;;;;;;9.73;2.83;;;25.00;78.30;;;;;;5094778;23;20059;-59
2022/05/15 07:59:35;;;;;;;6.40;2.40;;;25.00;78.50;;;;;;5092805;23;20570;-59
2022/05/15 08:01:38;;;;;;;3.40;2.20;;;25.00;78.60;;;;;;5096440;23;20035;-59
2022/05/15 08:03:43;;;;;;;4.32;2.20;;;25.00;78.70;;;;;;5097326;23;20597;-59
2022/05/15 08:08:09;;;;;;;2.60;1.80;;;25.00;78.80;;;;;;5092940;23;20467;-57
2022/05/15 08:10:12;;;;;;;3.35;2.10;;;25.10;78.70;;;;;;5090240;23;20208;-59
2022/05/15 08:12:14;;;;;;;5.30;1.90;;;25.10;78.70;;;;;;5093178;23;20032;-59
2022/05/15 08:14:18;;;;;;;3.05;1.83;;;25.10;78.70;;;;;;5095741;23;20566;-59
2022/05/15 08:16:20;;;;;;;4.10;1.63;;;25.10;78.60;;;;;;5091768;23;20757;-58
2022/05/15 08:25:22;;;;;;;3.50;1.85;;;25.20;78.20;;;;;;5091415;23;20544;-60
2022/05/15 08:27:24;;;;;;;5.13;1.70;;;25.30;78.20;;;;;;5093704;23;20610;-56
2022/05/15 08:29:26;;;;;;;2.63;1.60;;;25.30;78.20;;;;;;5061094;23;20083;-58
2022/05/15 08:31:29;;;;;;;2.85;1.60;;;25.30;78.20;;;;;;5091707;23;20024;-58
2022/05/15 08:33:31;;;;;;;4.97;1.90;;;25.30;78.30;;;;;;5096192;23;20483;-62
2022/05/15 08:35:33;;;;;;;4.10;1.58;;;25.30;79.00;;;;;;5085489;23;20021;-57
2022/05/15 08:37:36;;;;;;;4.20;1.80;;;25.30;78.30;;;;;;5089675;23;20131;-55
2022/05/15 08:39:38;;;;;;;3.58;1.50;;;25.30;78.90;;;;;;5093077;23;20305;-55
2022/05/15 08:41:54;;;;;;;3.53;1.48;;;25.30;78.30;;;;;;5091438;23;20723;-56
2022/05/15 08:44:09;;;;;;;3.03;1.45;;;25.30;78.30;;;;;;5093032;23;20042;-56
2022/05/15 08:46:32;;;;;;;2.40;1.30;;;25.30;78.30;;;;;;5094831;23;20132;-56
2022/05/15 08:48:38;;;;;;;2.30;1.60;;;25.30;78.30;;;;;;5089985;23;20102;-58
2022/05/15 08:50:49;;;;;;;4.25;1.65;;;25.30;78.30;;;;;;5091033;23;20400;-56
2022/05/15 08:53:06;;;;;;;2.60;1.60;;;25.30;78.30;;;;;;5092323;23;20484;-57
2022/05/15 08:55:14;;;;;;;2.30;1.35;;;25.30;78.30;;;;;;5090329;23;20291;-58
2022/05/15 08:57:35;;;;;;;1.67;1.27;;;25.30;78.30;;;;;;5090972;23;20603;-58
2022/05/15 08:59:54;;;;;;;3.05;1.48;;;25.30;78.30;;;;;;5084752;23;20516;-57
2022/05/15 09:01:59;;;;;;;3.33;1.55;;;25.30;78.30;;;;;;5088202;23;20024;-57
2022/05/15 09:04:01;;;;;;;3.30;1.35;;;25.30;78.30;;;;;;5086855;23;20024;-56
2022/05/15 09:06:27;;;;;;;2.75;1.55;;;25.30;78.30;;;;;;5094833;23;20159;-56
2022/05/15 09:09:10;;;;;;;4.18;1.67;;;25.30;78.20;;;;;;5086600;23;20036;-56
2022/05/15 09:11:15;;;;;;;2.38;1.38;;;25.30;78.30;;;;;;5087541;23;20241;-56
2022/05/15 09:13:40;;;;;;;4.82;1.67;;;25.20;78.20;;;;;;5092810;23;20055;-59
2022/05/15 09:15:59;;;;;;;2.70;1.23;;;25.30;78.20;;;;;;5088650;23;20075;-59
2022/05/15 09:18:05;;;;;;;2.58;1.50;;;25.20;78.30;;;;;;5091687;23;20043;-54
2022/05/15 09:20:16;;;;;;;2.22;1.58;;;25.30;78.40;;;;;;5089131;23;20110;-58
2022/05/15 09:22:19;;;;;;;5.53;1.70;;;25.20;78.30;;;;;;5089190;23;20020;-57
2022/05/15 09:24:30;;;;;;;6.97;1.70;;;25.20;78.30;;;;;;5090474;23;20032;-59
2022/05/15 09:26:48;;;;;;;7.78;1.83;;;25.20;78.50;;;;;;5088149;23;20094;-59
2022/05/15 09:28:53;;;;;;;8.68;1.85;;;25.20;78.40;;;;;;5090582;23;20035;-58
2022/05/15 09:30:58;;;;;;;3.20;1.30;;;25.20;78.40;;;;;;5090369;23;20638;-60
2022/05/15 09:33:01;;;;;;;5.55;1.60;;;25.30;78.40;;;;;;5068958;23;20029;-59
2022/05/15 09:35:05;;;;;;;3.25;1.60;;;25.20;78.30;;;;;;5040505;23;20403;-59
2022/05/15 09:39:51;;;;;;;5.70;1.48;;;25.20;78.10;;;;;;5093819;23;20400;-58
2022/05/15 09:44:38;;;;;;;3.25;1.58;;;25.20;78.30;;;;;;5067892;23;20924;-58
2022/05/15 09:46:41;;;;;;;3.45;1.17;;;25.20;78.20;;;;;;5089183;23;20486;-59
2022/05/15 09:49:06;;;;;;;5.82;1.55;;;25.20;78.30;;;;;;5092168;23;20504;-56
2022/05/15 09:51:13;;;;;;;3.58;1.73;;;25.20;78.30;;;;;;5075579;23;20024;-55
2022/05/15 09:53:26;;;;;;;6.88;1.80;;;25.20;78.20;;;;;;5067382;23;20821;-56
2022/05/15 09:55:29;;;;;;;6.57;2.00;;;25.20;78.20;;;;;;5093365;23;20519;-58
2022/05/15 09:57:31;;;;;;;2.85;1.70;;;25.20;78.10;;;;;;5088466;23;20092;-56
2022/05/15 09:59:33;;;;;;;2.97;1.25;;;25.20;78.20;;;;;;5094644;23;20028;-58
2022/05/15 10:01:57;;;;;;;5.07;1.48;;;25.30;78.20;;;;;;5065961;23;20493;-54
2022/05/15 10:04:01;;;;;;;3.90;1.20;;;25.20;78.10;;;;;;5090508;23;20371;-58
2022/05/15 10:06:09;;;;;;;2.80;1.65;;;25.30;78.20;;;;;;5096006;23;20237;-56
2022/05/15 10:08:24;;;;;;;3.47;1.70;;;25.30;78.20;;;;;;5094496;23;20336;-57
2022/05/15 10:10:37;;;;;;;3.42;1.40;;;25.30;78.20;;;;;;5094870;23;20134;-59
2022/05/15 10:12:39;;;;;;;;;;;25.30;78.30;;;;;;5096393;23;20616;-57
2022/05/15 10:14:45;;;;;;;4.25;1.73;;;25.30;78.30;;;;;;5089318;23;20145;-58
2022/05/15 10:16:52;;;;;;;2.97;1.30;;;25.30;78.60;;;;;;5092286;23;20117;-60
2022/05/15 10:19:18;;;;;;;3.17;1.25;;;25.30;79.00;;;;;;5092058;23;20041;-58
2022/05/15 10:21:27;;;;;;;3.90;1.50;;;25.30;79.10;;;;;;5060293;23;21111;-60
2022/05/15 10:23:39;;;;;;;5.05;1.50;;;25.30;79.60;;;;;;5086947;23;20036;-58
2022/05/15 10:26:19;;;;;;;6.35;1.20;;;25.30;80.10;;;;;;5088348;23;20025;-60
2022/05/15 10:28:48;;;;;;;2.60;1.20;;;25.30;80.20;;;;;;5088842;23;20063;-60
2022/05/15 10:31:03;;;;;;;5.05;1.42;;;25.40;80.30;;;;;;5093196;23;20131;-59
2022/05/15 10:33:14;;;;;;;7.03;1.63;;;25.40;80.80;;;;;;5092526;23;20035;-62
2022/05/15 10:35:25;;;;;;;2.58;1.40;;;25.40;80.10;;;;;;5092833;23;20028;-59
2022/05/15 10:37:38;;;;;;;5.78;1.67;;;25.40;80.10;;;;;;5069169;23;20436;-60
2022/05/15 10:40:10;;;;;;;6.13;1.38;;;25.40;80.00;;;;;;5069847;23;20633;-60
2022/05/15 10:42:44;;;;;;;7.18;1.58;;;25.40;79.80;;;;;;5040094;23;20431;-58
2022/05/15 10:45:00;;;;;;;5.47;1.50;;;25.40;79.80;;;;;;5092960;23;20094;-59
2022/05/15 10:47:12;;;;;;;4.82;1.42;;;25.40;79.90;;;;;;5087340;23;20509;-59
2022/05/15 10:49:46;;;;;;;2.47;1.17;;;25.40;79.90;;;;;;5088301;23;20071;-58
2022/05/15 10:52:06;;;;;;;6.75;1.40;;;25.40;79.80;;;;;;5097100;23;20095;-58
2022/05/15 10:59:29;;;;;;;4.03;1.63;;;25.30;79.50;;;;;;5094973;23;20024;-60
2022/05/15 11:01:41;;;;;;;3.95;1.20;;;25.30;79.40;;;;;;5093095;23;20421;-62
2022/05/15 11:04:02;;;;;;;4.35;1.38;;;25.40;79.50;;;;;;5067441;23;20028;-58
2022/05/15 11:06:48;;;;;;;2.80;1.38;;;25.30;79.30;;;;;;5097802;23;20029;-59
2022/05/15 11:08:56;;;;;;;2.80;1.10;;;25.30;79.40;;;;;;4973397;23;20058;-59
2022/05/15 11:11:19;;;;;;;4.75;1.60;;;25.30;79.50;;;;;;5060091;23;20102;-58
2022/05/15 11:13:34;;;;;;;14.07;1.65;;;25.30;79.50;;;;;;5093398;23;20035;-59
2022/05/15 11:15:51;;;;;;;1.88;1.10;;;25.40;79.50;;;;;;5093501;23;20040;-59